createdAt,value
2017-12-20T06:13:23.667Z,12.45
2017-12-20T06:15:54.329Z,13.00
2017-12-20T06:18:42.527Z,12.90
2017-12-20T06:21:10.278Z,12.40
2017-12-20T06:23:44.503Z,13.52
2017-12-20T06:26:12.576Z,11.45
2017-12-20T06:28:40.253Z,11.88
2017-12-20T06:31:13.903Z,12.13
2017-12-20T06:33:42.141Z,11.32
2017-12-20T06:36:09.844Z,11.20
2017-12-20T06:38:38.106Z,11.68
2017-12-20T06:41:05.822Z,11.15
2017-12-20T06:43:33.493Z,11.70
2017-12-20T06:46:03.694Z,12.65
2017-12-20T06:48:31.186Z,11.85
2017-12-20T06:50:58.682Z,11.98
2017-12-20T06:53:26.162Z,11.52
2017-12-20T06:55:53.754Z,12.70
2017-12-20T06:58:21.242Z,12.45
2017-12-20T07:00:48.834Z,12.93
2017-12-20T07:03:16.519Z,13.38
2017-12-20T07:05:43.986Z,13.88
2017-12-20T07:08:11.545Z,14.25
2017-12-20T07:10:39.114Z,14.77
2017-12-20T07:13:07.092Z,14.90
2017-12-20T07:15:34.756Z,14.98
2017-12-20T07:18:02.243Z,15.40
2017-12-20T07:20:29.763Z,15.05
2017-12-20T07:22:57.328Z,14.57
2017-12-20T07:25:24.832Z,15.07
2017-12-20T07:27:52.662Z,15.35
2017-12-20T07:30:20.145Z,14.45
2017-12-20T07:32:48.485Z,14.25
2017-12-20T07:35:16.023Z,15.38
2017-12-20T07:37:43.541Z,16.98
2017-12-20T07:40:11.142Z,16.10
2017-12-20T07:42:38.638Z,14.87
2017-12-20T07:45:06.115Z,12.80
2017-12-20T07:47:33.611Z,13.45
2017-12-20T07:50:01.124Z,13.18
2017-12-20T07:52:28.695Z,14.20
2017-12-20T07:54:56.182Z,14.20
2017-12-20T07:57:23.683Z,12.80
2017-12-20T07:59:51.180Z,14.20
2017-12-20T08:02:18.678Z,16.65
2017-12-20T08:04:46.190Z,13.23
2017-12-20T08:07:14.486Z,14.02
2017-12-20T08:09:41.999Z,13.43
2017-12-20T08:12:09.522Z,13.40
2017-12-20T08:14:37.026Z,12.43
2017-12-20T08:17:04.551Z,13.05
2017-12-20T08:19:32.050Z,12.48
2017-12-20T08:21:59.544Z,12.43
2017-12-20T08:24:27.059Z,11.23
2017-12-20T08:26:55.331Z,11.75
2017-12-20T08:29:23.628Z,11.07
2017-12-20T08:31:51.104Z,11.82
2017-12-20T08:34:18.592Z,10.98
2017-12-20T08:36:46.099Z,11.05
2017-12-20T08:39:13.659Z,11.12
2017-12-20T08:41:41.924Z,12.20
2017-12-20T08:44:10.160Z,12.45
2017-12-20T08:46:37.670Z,10.80
2017-12-20T08:49:05.155Z,12.00
2017-12-20T08:51:32.635Z,12.93
2017-12-20T08:54:00.159Z,12.82
2017-12-20T08:56:27.691Z,13.98
2017-12-20T08:58:55.955Z,12.93
2017-12-20T09:01:24.237Z,12.50
2017-12-20T09:03:51.739Z,11.45
2017-12-20T09:06:19.229Z,12.50
2017-12-20T09:08:46.715Z,14.15
2017-12-20T09:11:14.233Z,13.05
2017-12-20T09:13:41.739Z,13.07
2017-12-20T09:16:09.231Z,15.20
2017-12-20T09:18:37.410Z,14.98
2017-12-20T09:21:04.906Z,12.00
2017-12-20T09:23:32.390Z,15.85
2017-12-20T09:25:59.895Z,12.95
2017-12-20T09:28:27.381Z,14.63
2017-12-20T09:30:55.637Z,13.62
2017-12-20T09:33:23.193Z,13.45
2017-12-20T09:35:50.685Z,13.10
2017-12-20T09:38:18.950Z,13.00
2017-12-20T09:40:47.210Z,14.30
2017-12-20T09:43:14.708Z,13.52
2017-12-20T09:45:43.028Z,12.55
2017-12-20T09:48:10.477Z,12.65
2017-12-20T09:50:37.970Z,12.43
2017-12-20T09:53:05.503Z,13.65
2017-12-20T09:55:32.965Z,12.45
2017-12-20T09:58:00.428Z,11.98
2017-12-20T10:00:28.030Z,10.60
2017-12-20T10:02:55.521Z,10.35
2017-12-20T10:05:22.990Z,10.65
2017-12-20T10:07:50.458Z,9.43
2017-12-20T10:10:17.924Z,9.23
2017-12-20T10:12:45.385Z,8.65
2017-12-20T10:15:12.871Z,9.02
2017-12-20T10:17:40.319Z,8.63
2017-12-20T10:20:07.859Z,9.52
2017-12-20T10:22:35.501Z,8.75
2017-12-20T10:25:02.950Z,7.57
2017-12-20T10:27:30.411Z,7.85
2017-12-20T10:29:57.970Z,8.32
2017-12-20T10:32:25.426Z,8.40
2017-12-20T10:34:52.882Z,7.62
2017-12-20T10:37:20.342Z,7.78
2017-12-20T10:39:47.814Z,7.57
2017-12-20T10:42:15.270Z,7.78
2017-12-20T10:44:42.718Z,7.70
2017-12-20T10:47:10.351Z,7.82
2017-12-20T10:49:37.835Z,8.40
2017-12-20T10:52:05.301Z,7.87
2017-12-20T10:54:32.777Z,8.10
2017-12-20T10:57:00.223Z,8.23
2017-12-20T10:59:28.483Z,7.97
2017-12-20T11:01:55.965Z,7.60
2017-12-20T11:04:24.183Z,8.00
2017-12-20T11:06:51.676Z,9.20
2017-12-20T11:09:19.122Z,8.45
2017-12-20T11:11:46.622Z,9.15
2017-12-20T11:14:14.084Z,7.87
2017-12-20T11:16:41.556Z,8.43
2017-12-20T11:22:19.334Z,8.57
2017-12-20T11:24:46.873Z,7.30
2017-12-20T11:27:20.426Z,8.18
2017-12-20T11:30:20.206Z,9.40
2017-12-20T11:32:48.621Z,9.70
2017-12-20T11:35:16.120Z,9.68
2017-12-20T11:37:43.802Z,9.75
2017-12-20T11:40:11.695Z,9.93
2017-12-20T11:42:48.434Z,11.30
2017-12-20T11:45:19.768Z,11.10
2017-12-20T11:47:47.868Z,9.48
2017-12-20T11:50:15.495Z,11.12
2017-12-20T11:52:43.280Z,11.55
2017-12-20T11:55:11.123Z,11.10
2017-12-20T11:57:43.057Z,10.45
2017-12-20T12:00:11.047Z,12.10
2017-12-20T12:02:38.614Z,10.32
2017-12-20T12:05:06.122Z,11.68
2017-12-20T12:07:33.664Z,12.13
2017-12-20T12:10:01.235Z,13.18
2017-12-20T12:12:28.853Z,12.35
2017-12-20T12:14:56.716Z,12.05
2017-12-20T12:17:24.774Z,12.75
2017-12-20T12:19:52.436Z,11.43
2017-12-20T12:22:20.130Z,12.52
2017-12-20T12:24:47.929Z,12.13
2017-12-20T12:27:15.504Z,13.48
2017-12-20T12:29:43.167Z,12.20
2017-12-20T12:32:10.867Z,12.30
2017-12-20T12:34:39.940Z,12.27
2017-12-20T12:37:07.534Z,12.80
2017-12-20T12:39:35.024Z,12.15
2017-12-20T12:42:02.534Z,11.90
2017-12-20T12:44:30.035Z,12.80
2017-12-20T12:46:57.529Z,14.60
2017-12-20T12:49:25.015Z,13.30
2017-12-20T12:51:52.563Z,14.95
2017-12-20T12:54:20.063Z,13.50
2017-12-20T12:56:47.570Z,13.02
2017-12-20T12:59:15.104Z,13.82
2017-12-20T13:01:42.595Z,14.82
2017-12-20T13:04:10.248Z,13.80
2017-12-20T13:06:37.851Z,13.38
2017-12-20T13:09:19.877Z,15.32
2017-12-20T13:11:49.771Z,14.35
2017-12-20T13:14:18.555Z,14.57
2017-12-20T13:16:47.504Z,16.05
2017-12-20T13:19:15.382Z,15.80
2017-12-20T13:21:43.039Z,15.18
2017-12-20T13:24:11.673Z,15.07
2017-12-20T13:26:39.369Z,16.00
2017-12-20T13:29:07.021Z,16.52
2017-12-20T13:31:34.799Z,14.73
2017-12-20T13:34:02.372Z,15.00
2017-12-20T13:36:29.871Z,15.30
2017-12-20T13:38:57.396Z,16.30
2017-12-20T13:41:24.899Z,14.63
2017-12-20T13:43:52.504Z,14.32
2017-12-20T13:46:20.071Z,15.25
2017-12-20T13:48:53.734Z,14.40
2017-12-20T13:51:26.999Z,12.77
2017-12-20T13:53:54.875Z,13.90
2017-12-20T13:56:27.959Z,13.40
2017-12-20T13:58:55.822Z,14.27
2017-12-20T14:01:28.310Z,13.98
2017-12-20T14:03:56.848Z,13.55
2017-12-20T14:06:34.462Z,14.13
2017-12-20T14:09:06.793Z,14.87
2017-12-20T14:11:58.470Z,13.75
2017-12-20T14:19:52.217Z,13.73
2017-12-20T14:22:19.715Z,14.50
2017-12-20T14:24:48.570Z,14.15
2017-12-20T14:27:16.194Z,13.93
2017-12-20T14:29:43.676Z,14.90
2017-12-20T14:32:11.221Z,14.80
2017-12-20T14:34:38.710Z,15.68
2017-12-20T14:37:06.236Z,15.25
2017-12-20T14:39:33.719Z,15.32
2017-12-20T14:42:01.289Z,17.60
2017-12-20T14:44:29.603Z,16.37
2017-12-20T14:46:57.277Z,16.23
2017-12-20T14:49:24.818Z,15.95
2017-12-20T14:51:52.392Z,18.27
2017-12-20T14:54:19.899Z,18.73
2017-12-20T14:56:47.364Z,18.80
2017-12-20T14:59:14.839Z,20.12
2017-12-20T15:01:42.338Z,16.77
2017-12-20T15:04:09.830Z,17.58
2017-12-20T15:06:37.361Z,18.48
2017-12-20T15:09:05.415Z,18.58
2017-12-20T15:11:33.000Z,17.12
2017-12-20T15:14:00.529Z,17.92
2017-12-20T15:16:32.926Z,16.67
2017-12-20T15:19:00.407Z,17.73
2017-12-20T15:21:27.870Z,16.92
2017-12-20T15:23:55.357Z,15.40
2017-12-20T15:26:23.613Z,15.93
2017-12-20T15:28:51.078Z,15.35
2017-12-20T15:31:18.647Z,16.15
2017-12-20T15:33:46.921Z,15.90
2017-12-20T15:36:15.226Z,14.73
2017-12-20T15:38:42.756Z,14.87
2017-12-20T15:41:10.219Z,13.88
2017-12-20T15:43:38.483Z,14.43
2017-12-20T15:46:05.936Z,11.70
2017-12-20T15:48:33.454Z,10.77
2017-12-20T15:51:00.927Z,10.85
2017-12-20T15:53:28.393Z,11.48
2017-12-20T15:55:55.879Z,9.60
2017-12-20T15:58:24.115Z,9.55
2017-12-20T16:00:51.576Z,8.30
2017-12-20T16:03:19.043Z,9.10
2017-12-20T16:05:46.526Z,9.02
2017-12-20T16:08:14.782Z,8.52
2017-12-20T16:10:42.258Z,8.52
2017-12-20T16:13:10.482Z,8.48
2017-12-20T16:15:37.940Z,7.25
2017-12-20T16:18:05.415Z,8.45
2017-12-20T16:20:32.882Z,7.45
2017-12-20T16:26:21.019Z,8.82
2017-12-20T16:28:49.388Z,8.40
2017-12-20T16:31:20.498Z,7.62
2017-12-20T20:51:57.790Z,12.93
2017-12-20T20:54:30.496Z,12.75
2017-12-20T21:06:10.098Z,15.38
2017-12-20T21:08:37.885Z,13.30
2017-12-20T21:11:10.378Z,16.15
2017-12-20T21:14:00.006Z,13.88
2017-12-20T21:16:30.717Z,14.05
2017-12-20T21:22:37.827Z,13.23
2017-12-20T21:25:11.646Z,15.45
2017-12-20T21:27:43.456Z,14.27
2017-12-20T21:33:27.803Z,13.07
2017-12-20T21:36:05.643Z,13.45
2017-12-20T21:38:45.464Z,15.23
2017-12-20T21:41:32.171Z,14.95
2017-12-20T21:50:17.593Z,14.43
2017-12-20T21:52:53.753Z,15.55
2017-12-20T22:13:16.401Z,15.70
2017-12-20T22:25:14.844Z,14.40
2017-12-20T22:58:16.115Z,13.90
2017-12-20T23:03:39.766Z,13.90
2017-12-20T23:15:31.148Z,15.30
2017-12-20T23:18:15.086Z,15.82
2017-12-20T23:24:02.455Z,15.57
2017-12-20T23:26:52.152Z,17.75
2017-12-20T23:29:29.511Z,17.73
2017-12-20T23:35:10.182Z,16.85
2017-12-20T23:37:38.238Z,17.25
2017-12-20T23:52:45.477Z,18.80
